Time;durP1;ratioP1;P1;durP2;ratioP2;P2;SDS_P1;SDS_P2;PMS_P1;PMS_P2;Temp;Humidity;BMP_temperature;BMP_pressure;BME280_temperature;BME280_humidity;BME280_pressure;Samples;Min_cycle;Max_cycle;Signal;HPM_P1;HPM_P2
2024/04/04 00:00:13;;;;;;;4.63;2.25;;;8.80;99.90;;;;;;5024340;28;20398;-67
2024/04/04 00:02:38;;;;;;;5.18;2.78;;;8.90;99.90;;;;;;5020988;28;20066;-68
2024/04/04 00:05:04;;;;;;;4.70;2.28;;;9.00;99.90;;;;;;5022880;28;20044;-68
2024/04/04 00:07:30;;;;;;;7.88;2.95;;;9.00;99.90;;;;;;5015609;28;20105;-68
2024/04/04 00:09:57;;;;;;;4.32;2.63;;;9.10;99.90;;;;;;5015831;28;20029;-66
2024/04/04 00:12:24;;;;;;;4.97;2.60;;;9.10;99.90;;;;;;5010782;28;20026;-66
2024/04/04 00:14:49;;;;;;;4.90;2.88;;;9.10;99.90;;;;;;5017826;28;20052;-66
2024/04/04 00:17:15;;;;;;;8.38;3.28;;;9.10;99.90;;;;;;5013180;28;20242;-66
2024/04/04 00:19:40;;;;;;;5.00;2.70;;;9.10;99.90;;;;;;5024371;28;20052;-66
2024/04/04 00:22:06;;;;;;;6.20;3.17;;;9.10;99.90;;;;;;5015170;28;20061;-66
2024/04/04 00:24:31;;;;;;;4.72;2.40;;;9.10;99.90;;;;;;5018136;28;20164;-66
2024/04/04 00:26:57;;;;;;;5.55;3.10;;;9.10;99.90;;;;;;5017014;28;20393;-66
2024/04/04 00:29:22;;;;;;;4.18;2.22;;;9.10;99.90;;;;;;5017957;28;20120;-66
2024/04/04 00:31:48;;;;;;;4.05;2.75;;;9.10;99.90;;;;;;5013870;28;20071;-66
2024/04/04 00:34:13;;;;;;;7.70;3.67;;;9.10;99.90;;;;;;5017737;28;20464;-66
2024/04/04 00:36:39;;;;;;;4.38;2.63;;;9.10;99.90;;;;;;5015200;28;20059;-66
2024/04/04 00:39:04;;;;;;;7.10;3.35;;;9.10;99.90;;;;;;5018376;28;20210;-66
2024/04/04 00:41:30;;;;;;;8.10;3.63;;;9.10;99.90;;;;;;5015183;28;20481;-66
2024/04/04 00:43:56;;;;;;;6.18;2.97;;;9.10;99.90;;;;;;5015853;28;20049;-67
2024/04/04 00:46:23;;;;;;;7.63;3.47;;;9.10;99.90;;;;;;5017927;28;20390;-67
2024/04/04 00:48:48;;;;;;;5.22;3.30;;;9.10;99.90;;;;;;5018621;28;20034;-67
2024/04/04 00:51:14;;;;;;;6.05;3.17;;;9.10;99.90;;;;;;5019590;28;20050;-67
2024/04/04 00:53:41;;;;;;;5.30;3.38;;;9.10;99.90;;;;;;5013761;28;20045;-66
2024/04/04 00:56:07;;;;;;;4.90;2.85;;;;;;;;;;5015662;28;20378;-66
2024/04/04 00:58:33;;;;;;;5.32;2.95;;;9.10;99.90;;;;;;5016342;28;20102;-67
2024/04/04 01:00:59;;;;;;;5.57;3.25;;;9.00;99.90;;;;;;5017503;28;20045;-67
2024/04/04 01:03:24;;;;;;;6.05;3.38;;;9.00;99.90;;;;;;5017850;28;20122;-67
2024/04/04 01:05:50;;;;;;;8.65;3.22;;;8.90;99.90;;;;;;5017259;28;20041;-67
2024/04/04 01:08:16;;;;;;;4.32;2.42;;;8.90;99.90;;;;;;5017236;28;20037;-67
2024/04/04 01:10:41;;;;;;;5.75;2.67;;;8.90;99.90;;;;;;5014754;28;20434;-67
2024/04/04 01:13:07;;;;;;;5.03;2.75;;;8.90;99.90;;;;;;5012561;28;20156;-67
2024/04/04 01:15:32;;;;;;;5.63;2.70;;;8.90;99.90;;;;;;5017359;28;20076;-66
2024/04/04 01:17:58;;;;;;;8.80;2.75;;;8.90;99.90;;;;;;5020037;28;20030;-66
2024/04/04 01:20:25;;;;;;;6.10;3.42;;;8.90;99.90;;;;;;5013295;28;20025;-67
2024/04/04 01:22:50;;;;;;;5.38;2.92;;;8.90;99.90;;;;;;5020600;28;20037;-67
2024/04/04 01:25:16;;;;;;;4.55;2.40;;;8.90;99.90;;;;;;5016423;28;20038;-67
2024/04/04 01:27:41;;;;;;;5.30;2.65;;;8.80;99.90;;;;;;5011676;28;20044;-67
2024/04/04 01:30:09;;;;;;;6.03;2.78;;;8.90;99.90;;;;;;5017498;28;20583;-67
2024/04/04 01:32:35;;;;;;;5.57;3.10;;;8.90;99.90;;;;;;5017930;28;20144;-67
2024/04/04 01:35:00;;;;;;;5.57;2.47;;;8.80;99.90;;;;;;5016110;28;20433;-67
2024/04/04 01:37:26;;;;;;;5.18;2.78;;;8.80;99.90;;;;;;5018331;28;20033;-67
2024/04/04 01:39:52;;;;;;;5.50;3.03;;;8.80;99.90;;;;;;5016412;28;20077;-67
2024/04/04 01:42:17;;;;;;;5.30;2.50;;;8.80;99.90;;;;;;5009899;28;20342;-67
2024/04/04 01:44:42;;;;;;;4.70;2.33;;;8.80;99.90;;;;;;5012693;28;20184;-66
2024/04/04 01:47:08;;;;;;;4.85;2.65;;;8.80;99.90;;;;;;5016401;28;20426;-66
2024/04/04 01:49:33;;;;;;;6.93;2.88;;;8.80;99.90;;;;;;5014836;28;20140;-66
2024/04/04 01:51:59;;;;;;;7.03;3.28;;;8.80;99.90;;;;;;5016042;28;20136;-66
2024/04/04 01:54:24;;;;;;;3.40;2.13;;;8.80;99.90;;;;;;5015263;28;20085;-66
2024/04/04 01:56:50;;;;;;;4.82;2.30;;;8.80;99.90;;;;;;5015516;28;20476;-66
2024/04/04 01:59:16;;;;;;;5.82;2.10;;;8.80;99.90;;;;;;5013140;28;20037;-66
2024/04/04 02:01:41;;;;;;;4.32;2.38;;;8.70;99.90;;;;;;5016149;28;20510;-67
2024/04/04 02:04:07;;;;;;;4.85;2.30;;;8.70;99.90;;;;;;5018681;28;20058;-67
2024/04/04 02:06:32;;;;;;;4.63;2.38;;;8.70;99.90;;;;;;5017804;28;20041;-66
2024/04/04 02:08:57;;;;;;;5.65;2.45;;;8.70;99.90;;;;;;5015254;28;20029;-67
2024/04/04 02:11:23;;;;;;;4.05;2.17;;;8.70;99.90;;;;;;5013777;28;20435;-67
2024/04/04 02:13:49;;;;;;;7.85;2.42;;;8.70;99.90;;;;;;5014890;28;20048;-67
2024/04/04 02:16:16;;;;;;;5.07;2.55;;;8.70;99.90;;;;;;5015206;28;20049;-67
2024/04/04 02:18:42;;;;;;;3.83;1.73;;;8.70;99.90;;;;;;5016692;28;20167;-68
2024/04/04 02:21:08;;;;;;;5.45;2.40;;;8.70;99.90;;;;;;5013962;28;20045;-67
2024/04/04 02:23:33;;;;;;;5.60;2.63;;;8.70;99.90;;;;;;5015229;28;20017;-67
2024/04/04 02:25:59;;;;;;;3.75;2.10;;;8.70;99.90;;;;;;5012932;28;20033;-67
2024/04/04 02:28:24;;;;;;;4.10;2.40;;;8.70;99.90;;;;;;5007344;28;20029;-67
2024/04/04 02:30:50;;;;;;;7.05;2.30;;;8.80;99.70;;;;;;5014361;28;20529;-67
2024/04/04 02:33:16;;;;;;;4.05;2.03;;;8.70;99.60;;;;;;5014694;28;20025;-67
2024/04/04 02:35:55;;;;;;;6.13;1.85;;;8.70;99.70;;;;;;5013410;28;20059;-67
2024/04/04 02:38:22;;;;;;;4.50;2.10;;;8.70;99.40;;;;;;5017182;28;20133;-67
2024/04/04 02:40:48;;;;;;;3.70;1.92;;;8.70;99.30;;;;;;5013850;28;20105;-67
2024/04/04 02:43:15;;;;;;;4.07;1.95;;;8.70;99.30;;;;;;5016692;28;20269;-67
2024/04/04 02:45:41;;;;;;;3.20;1.98;;;8.80;99.10;;;;;;5019907;28;20093;-66
2024/04/04 02:48:07;;;;;;;4.30;2.00;;;8.80;99.10;;;;;;5020656;28;20119;-66
2024/04/04 02:50:32;;;;;;;6.07;2.85;;;8.70;99.10;;;;;;5017455;28;20132;-67
2024/04/04 02:52:58;;;;;;;4.25;1.75;;;8.80;99.00;;;;;;5019273;28;20034;-67
2024/04/04 02:55:23;;;;;;;3.65;1.73;;;8.80;98.80;;;;;;5018954;28;20088;-67
2024/04/04 02:57:49;;;;;;;2.58;1.70;;;8.70;98.70;;;;;;5015267;28;20037;-67
2024/04/04 03:00:15;;;;;;;5.15;2.00;;;8.70;98.80;;;;;;5019104;28;20121;-67
2024/04/04 03:02:40;;;;;;;3.45;1.92;;;8.70;98.60;;;;;;5019089;28;20053;-67
2024/04/04 03:05:06;;;;;;;2.90;1.75;;;8.70;98.60;;;;;;5018353;28;20128;-67
2024/04/04 03:07:32;;;;;;;3.88;2.35;;;8.70;98.40;;;;;;5020346;28;20401;-68
2024/04/04 03:09:57;;;;;;;3.22;1.83;;;8.80;98.10;;;;;;5016715;28;20045;-65
2024/04/04 03:12:23;;;;;;;2.67;1.48;;;8.70;98.20;;;;;;5018132;28;20141;-66
2024/04/04 03:14:48;;;;;;;3.35;1.77;;;8.70;98.30;;;;;;5017373;28;20033;-66
2024/04/04 03:17:14;;;;;;;4.32;1.80;;;8.70;98.20;;;;;;5024052;28;20033;-66
2024/04/04 03:19:39;;;;;;;2.65;1.63;;;8.70;98.00;;;;;;5017691;28;20033;-66
2024/04/04 03:22:05;;;;;;;2.70;1.60;;;8.60;98.00;;;;;;5018411;28;20044;-67
2024/04/04 03:24:30;;;;;;;2.83;1.60;;;8.60;98.10;;;;;;5017825;28;20099;-66
2024/04/04 03:26:56;;;;;;;2.38;1.30;;;8.60;98.20;;;;;;5015656;28;20057;-66
2024/04/04 03:29:21;;;;;;;2.40;1.30;;;8.60;98.10;;;;;;5016748;28;20045;-66
2024/04/04 03:31:47;;;;;;;3.80;1.73;;;8.60;97.80;;;;;;5016476;28;20041;-66
2024/04/04 03:34:12;;;;;;;1.98;1.20;;;8.50;97.90;;;;;;5018800;28;20045;-66
2024/04/04 03:36:38;;;;;;;3.03;1.83;;;8.50;97.90;;;;;;5018424;28;20434;-66
2024/04/04 03:39:03;;;;;;;2.78;1.40;;;8.40;98.00;;;;;;5019809;28;20091;-66
2024/04/04 03:41:29;;;;;;;3.60;2.13;;;8.40;97.90;;;;;;5017162;28;20366;-66
2024/04/04 03:43:55;;;;;;;3.17;1.23;;;8.40;98.20;;;;;;5018054;28;20442;-66
2024/04/04 03:46:20;;;;;;;2.80;1.60;;;8.40;98.00;;;;;;5018657;28;20117;-66
2024/04/04 03:48:45;;;;;;;1.33;1.05;;;8.40;98.10;;;;;;5020421;28;20118;-66
2024/04/04 03:51:11;;;;;;;2.47;1.50;;;8.30;98.10;;;;;;5018276;28;20064;-66
2024/04/04 03:53:37;;;;;;;3.20;1.27;;;8.20;98.20;;;;;;5017787;28;20135;-66
2024/04/04 03:56:02;;;;;;;1.58;1.15;;;8.20;98.40;;;;;;5016754;28;20465;-66
2024/04/04 03:58:28;;;;;;;2.08;1.30;;;8.10;98.30;;;;;;5016608;28;20111;-66
2024/04/04 04:00:54;;;;;;;3.88;1.52;;;8.00;98.60;;;;;;5017001;28;20041;-65
2024/04/04 04:03:19;;;;;;;1.98;0.95;;;7.90;98.80;;;;;;5017434;28;20383;-66
2024/04/04 04:05:45;;;;;;;1.65;0.98;;;7.90;99.00;;;;;;5019113;28;20128;-66
2024/04/04 04:08:11;;;;;;;1.80;1.15;;;7.90;99.00;;;;;;5016956;28;20060;-66
2024/04/04 04:10:37;;;;;;;1.92;1.00;;;7.70;98.90;;;;;;5017324;28;20033;-66
2024/04/04 04:13:03;;;;;;;1.60;1.08;;;7.70;99.10;;;;;;5015149;28;20025;-66
2024/04/04 04:15:29;;;;;;;3.30;1.10;;;7.80;99.30;;;;;;5017573;28;20048;-66
2024/04/04 04:17:55;;;;;;;3.22;1.63;;;7.70;99.10;;;;;;5017505;28;20030;-66
2024/04/04 04:23:04;;;;;;;1.05;0.65;;;7.60;99.40;;;;;;5012755;28;20048;-66
2024/04/04 04:25:30;;;;;;;2.83;1.00;;;7.60;99.40;;;;;;5019496;28;20033;-66
2024/04/04 04:27:55;;;;;;;1.70;0.98;;;7.50;99.50;;;;;;5019227;28;20259;-66
2024/04/04 04:30:20;;;;;;;1.10;0.98;;;7.60;99.70;;;;;;5016488;28;20045;-66
2024/04/04 04:32:46;;;;;;;1.75;1.20;;;7.60;99.60;;;;;;5015623;28;20083;-65
2024/04/04 04:35:11;;;;;;;1.38;0.85;;;7.60;99.50;;;;;;5017258;28;20116;-65
2024/04/04 04:37:37;;;;;;;1.77;0.85;;;7.60;99.50;;;;;;5018342;28;20426;-65
2024/04/04 04:40:03;;;;;;;2.20;1.10;;;7.60;99.50;;;;;;5018130;28;20312;-65
2024/04/04 04:42:29;;;;;;;1.80;0.80;;;7.60;99.40;;;;;;5015473;28;20493;-65
2024/04/04 04:44:56;;;;;;;2.92;1.20;;;7.60;99.40;;;;;;5020130;28;20116;-65
2024/04/04 04:47:22;;;;;;;2.53;0.82;;;7.50;99.50;;;;;;5014084;28;20038;-65
2024/04/04 04:49:52;;;;;;;4.15;1.02;;;7.40;99.40;;;;;;5030846;28;20041;-65
2024/04/04 04:52:18;;;;;;;0.85;0.68;;;7.30;99.60;;;;;;5016657;28;20045;-66
2024/04/04 04:54:44;;;;;;;2.28;1.05;;;7.30;99.80;;;;;;5014993;28;20039;-66
2024/04/04 04:57:10;;;;;;;2.28;1.17;;;7.30;99.70;;;;;;5012539;28;20029;-66
2024/04/04 04:59:35;;;;;;;0.95;0.90;;;7.30;99.80;;;;;;5014267;28;20132;-65
2024/04/04 05:02:02;;;;;;;1.50;0.95;;;7.20;99.80;;;;;;5018143;28;20404;-65
2024/04/04 05:04:27;;;;;;;0.77;0.70;;;7.20;99.90;;;;;;5019009;28;20037;-65
2024/04/04 05:06:53;;;;;;;1.23;0.65;;;7.30;99.90;;;;;;5018692;28;20553;-65
2024/04/04 05:09:19;;;;;;;1.60;0.70;;;7.30;99.90;;;;;;5015603;28;20104;-65
2024/04/04 05:11:45;;;;;;;2.88;0.80;;;7.30;99.90;;;;;;5008578;28;20662;-64
2024/04/04 05:14:12;;;;;;;1.85;0.77;;;7.30;99.90;;;;;;5015088;28;20033;-65
2024/04/04 05:16:39;;;;;;;1.90;0.80;;;7.40;99.80;;;;;;5018640;28;20038;-65
2024/04/04 05:19:04;;;;;;;1.00;0.73;;;7.40;99.60;;;;;;5017903;28;20033;-65
2024/04/04 05:21:30;;;;;;;1.92;0.70;;;;;;;;;;5010591;28;20060;-65
2024/04/04 05:23:56;;;;;;;2.58;0.70;;;7.40;99.60;;;;;;5013971;28;20123;-64
2024/04/04 05:26:21;;;;;;;0.65;0.65;;;7.40;99.50;;;;;;5014030;28;20025;-67
2024/04/04 05:28:51;;;;;;;1.20;0.77;;;7.40;99.50;;;;;;5014809;28;20140;-66
2024/04/04 05:31:16;;;;;;;0.40;0.40;;;7.50;99.30;;;;;;5016702;28;20046;-66
2024/04/04 05:33:42;;;;;;;1.95;0.75;;;7.50;99.20;;;;;;5013343;28;20034;-66
2024/04/04 05:36:07;;;;;;;1.17;0.70;;;7.50;99.10;;;;;;5017236;28;20124;-66
2024/04/04 05:38:33;;;;;;;0.93;0.65;;;7.50;98.90;;;;;;5016305;28;20026;-67
2024/04/04 05:41:04;;;;;;;3.40;1.08;;;7.60;98.80;;;;;;5013289;28;20494;-67
2024/04/04 05:43:29;;;;;;;2.25;0.70;;;7.60;98.30;;;;;;5012039;28;20141;-66
2024/04/04 05:45:55;;;;;;;1.10;0.80;;;7.60;98.20;;;;;;5012556;28;20437;-67
2024/04/04 05:48:20;;;;;;;2.15;0.73;;;7.60;98.10;;;;;;5015962;28;20034;-67
2024/04/04 05:50:46;;;;;;;0.95;0.60;;;7.60;98.20;;;;;;5012211;28;20094;-66
2024/04/04 05:53:11;;;;;;;0.45;0.45;;;7.60;98.10;;;;;;5015766;28;20112;-66
2024/04/04 05:55:37;;;;;;;0.70;0.50;;;7.60;98.00;;;;;;5013548;28;20096;-67
2024/04/04 05:58:02;;;;;;;1.35;0.52;;;7.70;97.70;;;;;;5011093;28;20430;-66
2024/04/04 06:00:28;;;;;;;0.95;0.68;;;7.70;97.40;;;;;;5015155;28;20034;-66
2024/04/04 06:02:53;;;;;;;0.90;0.57;;;7.70;97.50;;;;;;5014641;28;20203;-64
2024/04/04 06:05:18;;;;;;;1.27;0.80;;;7.70;97.50;;;;;;5011266;28;20462;-64
2024/04/04 06:07:44;;;;;;;1.70;0.85;;;7.80;97.50;;;;;;5017598;28;20059;-65
2024/04/04 06:10:09;;;;;;;2.65;0.90;;;7.80;97.50;;;;;;5016760;28;20101;-65
2024/04/04 06:12:35;;;;;;;0.52;0.47;;;7.90;97.50;;;;;;5010661;28;20432;-64
2024/04/04 06:15:00;;;;;;;1.10;0.73;;;8.10;97.40;;;;;;5018553;28;20128;-64
2024/04/04 06:17:26;;;;;;;1.45;0.70;;;8.20;96.80;;;;;;5016695;28;20037;-65
2024/04/04 06:19:52;;;;;;;1.38;0.80;;;8.30;96.60;;;;;;5018396;28;20034;-64
2024/04/04 06:22:17;;;;;;;5.75;0.88;;;8.30;96.50;;;;;;5016406;28;20041;-64
2024/04/04 06:24:44;;;;;;;1.80;0.70;;;8.40;96.00;;;;;;5012774;28;20041;-64
2024/04/04 06:27:10;;;;;;;0.70;0.70;;;8.40;95.90;;;;;;5027799;28;20116;-66
2024/04/04 06:29:35;;;;;;;1.60;0.80;;;8.30;95.90;;;;;;5013201;28;20034;-65
2024/04/04 06:32:04;;;;;;;3.15;0.50;;;8.40;95.20;;;;;;5011198;28;20060;-65
2024/04/04 06:34:30;;;;;;;1.38;0.70;;;8.40;95.80;;;;;;5016441;28;20025;-64
2024/04/04 06:36:55;;;;;;;2.00;0.50;;;8.40;95.70;;;;;;5010648;28;20034;-64
2024/04/04 06:39:21;;;;;;;2.65;0.60;;;8.30;95.60;;;;;;5021194;28;20115;-64
2024/04/04 06:41:46;;;;;;;2.95;0.63;;;8.40;95.50;;;;;;5015040;28;20063;-64
2024/04/04 06:44:11;;;;;;;1.00;0.57;;;8.40;95.40;;;;;;5025216;28;20097;-64
2024/04/04 06:46:37;;;;;;;1.73;0.50;;;8.40;95.60;;;;;;5020218;28;20034;-64
2024/04/04 06:49:04;;;;;;;0.95;0.40;;;8.40;95.50;;;;;;5021003;28;20098;-65
2024/04/04 06:51:30;;;;;;;1.60;0.75;;;8.40;95.80;;;;;;5019460;28;20108;-64
2024/04/04 06:53:55;;;;;;;0.28;0.28;;;8.40;95.70;;;;;;5018686;28;20136;-64
2024/04/04 06:56:21;;;;;;;0.75;0.45;;;8.40;95.70;;;;;;5020711;28;20076;-66
2024/04/04 06:58:46;;;;;;;1.13;0.50;;;8.40;95.50;;;;;;5031760;28;20036;-65
2024/04/04 07:01:12;;;;;;;1.77;0.80;;;8.40;95.80;;;;;;5025906;28;20091;-65
2024/04/04 07:03:37;;;;;;;5.57;0.85;;;8.40;95.80;;;;;;5009927;28;20069;-64
2024/04/04 07:06:03;;;;;;;0.30;0.30;;;8.40;95.60;;;;;;5017042;28;20034;-65
2024/04/04 07:08:29;;;;;;;1.20;0.57;;;8.40;95.60;;;;;;5015479;28;20485;-65
2024/04/04 07:11:02;;;;;;;0.52;0.45;;;8.50;95.70;;;;;;5012435;28;20050;-65
2024/04/04 07:13:28;;;;;;;1.00;0.40;;;8.60;95.50;;;;;;5025269;28;20327;-64
2024/04/04 07:16:01;;;;;;;1.90;0.60;;;8.80;95.10;;;;;;5012173;28;20025;-65
2024/04/04 07:18:27;;;;;;;0.68;0.43;;;9.10;95.00;;;;;;5011931;28;20443;-65
2024/04/04 07:20:56;;;;;;;0.75;0.30;;;9.20;94.60;;;;;;5013647;28;20030;-65
2024/04/04 07:23:21;;;;;;;0.85;0.47;;;9.40;93.90;;;;;;5023794;28;20033;-65
2024/04/04 07:25:51;;;;;;;2.10;0.47;;;9.50;94.10;;;;;;5028337;28;20041;-65
2024/04/04 07:28:17;;;;;;;1.98;0.40;;;9.60;93.90;;;;;;5012572;28;20029;-65
2024/04/04 07:30:43;;;;;;;2.28;0.77;;;9.50;92.50;;;;;;5021141;28;20042;-65
2024/04/04 07:33:08;;;;;;;2.10;0.70;;;9.50;93.40;;;;;;5015977;28;20113;-65
2024/04/04 07:35:34;;;;;;;1.38;0.68;;;9.50;93.20;;;;;;5018280;28;20029;-66
2024/04/04 07:37:59;;;;;;;0.77;0.45;;;9.60;93.10;;;;;;5018102;28;20033;-65
2024/04/04 07:40:25;;;;;;;1.55;0.40;;;9.50;92.90;;;;;;5015992;28;20030;-66
2024/04/04 07:42:53;;;;;;;1.10;0.38;;;9.50;93.40;;;;;;5012339;28;20354;-64
2024/04/04 07:45:18;;;;;;;0.30;0.28;;;9.40;93.20;;;;;;5020528;28;20018;-65
2024/04/04 07:47:44;;;;;;;2.33;0.50;;;9.40;93.50;;;;;;5022831;28;20046;-64
2024/04/04 07:50:09;;;;;;;0.47;0.40;;;9.40;93.60;;;;;;5019588;28;20049;-65
2024/04/04 07:52:35;;;;;;;2.08;0.45;;;9.40;93.10;;;;;;5020803;28;20201;-66
2024/04/04 07:55:01;;;;;;;3.17;1.05;;;9.30;93.10;;;;;;5026171;28;20032;-65
2024/04/04 07:57:27;;;;;;;3.05;0.85;;;9.40;93.60;;;;;;5016661;28;20034;-66
2024/04/04 07:59:53;;;;;;;1.23;0.45;;;9.30;93.90;;;;;;5018290;28;20112;-65
2024/04/04 08:02:18;;;;;;;2.28;0.43;;;9.40;93.80;;;;;;5026698;28;20125;-64
2024/04/04 08:04:44;;;;;;;0.73;0.40;;;9.40;94.40;;;;;;5023315;28;20030;-65
2024/04/04 08:07:09;;;;;;;0.70;0.55;;;9.40;94.10;;;;;;5013099;28;20029;-65
2024/04/04 08:09:35;;;;;;;0.47;0.43;;;9.50;94.20;;;;;;5018384;28;20099;-65
2024/04/04 08:12:00;;;;;;;0.73;0.20;;;9.50;94.20;;;;;;5017067;28;20053;-64
2024/04/04 08:14:27;;;;;;;4.53;0.50;;;9.50;93.90;;;;;;5018459;28;20030;-64
2024/04/04 08:16:53;;;;;;;1.15;0.50;;;9.50;93.90;;;;;;5020283;28;20435;-64
2024/04/04 08:19:18;;;;;;;1.85;0.30;;;9.50;94.20;;;;;;5010947;28;20034;-64
2024/04/04 08:21:44;;;;;;;0.98;0.55;;;9.40;94.50;;;;;;5030068;28;20074;-64
2024/04/04 08:24:09;;;;;;;1.02;0.40;;;9.30;94.20;;;;;;5020719;28;20417;-64
2024/04/04 08:26:35;;;;;;;3.75;1.02;;;9.30;94.80;;;;;;5016157;28;20044;-65
2024/04/04 08:29:00;;;;;;;2.08;0.65;;;9.30;95.10;;;;;;5013604;28;20163;-65
2024/04/04 08:31:25;;;;;;;1.98;0.57;;;9.30;95.60;;;;;;5012993;28;20329;-64
2024/04/04 08:33:51;;;;;;;1.73;0.55;;;9.30;95.70;;;;;;5027030;28;20022;-64
2024/04/04 08:36:17;;;;;;;0.77;0.50;;;9.30;95.60;;;;;;5010387;28;20489;-65
2024/04/04 08:38:42;;;;;;;1.77;0.55;;;9.40;96.00;;;;;;5008013;28;20092;-65
2024/04/04 08:41:09;;;;;;;1.88;0.50;;;9.30;96.00;;;;;;5014002;28;20070;-64
2024/04/04 08:43:35;;;;;;;2.42;0.45;;;9.30;96.20;;;;;;5019573;28;20068;-64
2024/04/04 08:46:02;;;;;;;0.20;0.20;;;9.20;96.30;;;;;;5011045;28;20038;-66
2024/04/04 08:48:28;;;;;;;0.93;0.47;;;9.20;96.30;;;;;;5010754;28;20369;-64
2024/04/04 08:50:54;;;;;;;0.28;0.22;;;9.10;96.40;;;;;;5013025;28;20033;-65
2024/04/04 08:53:22;;;;;;;1.05;0.68;;;9.10;96.70;;;;;;5027148;28;20889;-65
2024/04/04 08:55:50;;;;;;;1.15;0.50;;;9.10;97.10;;;;;;5010641;28;20109;-64
2024/04/04 08:58:17;;;;;;;0.52;0.40;;;9.10;97.20;;;;;;5012984;28;20136;-65
2024/04/04 09:00:43;;;;;;;1.13;0.40;;;9.00;97.50;;;;;;5015404;28;20220;-65
2024/04/04 09:03:09;;;;;;;0.32;0.32;;;8.90;97.80;;;;;;5015734;28;20090;-65
2024/04/04 09:05:35;;;;;;;1.95;0.65;;;8.80;98.10;;;;;;5012433;28;20057;-66
2024/04/04 09:08:04;;;;;;;0.80;0.52;;;8.90;98.40;;;;;;5013489;28;20064;-65
2024/04/04 09:10:29;;;;;;;0.50;0.30;;;8.90;98.80;;;;;;5009066;28;20374;-65
2024/04/04 09:13:02;;;;;;;0.50;0.38;;;8.80;99.00;;;;;;5012559;28;20026;-65
2024/04/04 09:15:27;;;;;;;1.33;0.50;;;8.80;99.10;;;;;;5019720;28;20053;-65
2024/04/04 09:18:14;;;;;;;1.52;0.50;;;8.90;99.20;;;;;;5015357;28;20063;-64
2024/04/04 09:20:40;;;;;;;0.57;0.38;;;9.10;99.50;;;;;;5010314;28;20068;-64
2024/04/04 09:23:07;;;;;;;3.00;1.02;;;9.30;99.50;;;;;;5018737;28;20448;-65
2024/04/04 09:25:34;;;;;;;1.15;0.70;;;9.40;99.20;;;;;;5010263;28;20026;-65
2024/04/04 09:28:00;;;;;;;0.80;0.50;;;9.50;99.30;;;;;;5007002;28;20446;-65
2024/04/04 09:30:29;;;;;;;0.45;0.40;;;9.60;99.30;;;;;;5012997;28;20078;-65
2024/04/04 09:32:55;;;;;;;0.95;0.40;;;9.50;99.10;;;;;;5013548;28;20040;-64
2024/04/04 09:35:21;;;;;;;0.68;0.50;;;9.50;99.40;;;;;;5013618;28;20033;-65
2024/04/04 09:37:47;;;;;;;1.17;0.43;;;9.40;99.30;;;;;;5020791;28;20389;-65
2024/04/04 09:40:15;;;;;;;3.38;0.70;;;9.30;99.50;;;;;;5015512;28;20078;-65
2024/04/04 09:42:43;;;;;;;1.00;0.60;;;9.30;99.70;;;;;;5011194;28;20148;-64
2024/04/04 09:45:09;;;;;;;0.68;0.57;;;9.30;99.70;;;;;;5019490;28;20116;-65
2024/04/04 09:47:42;;;;;;;0.82;0.70;;;9.30;99.80;;;;;;5009681;28;20117;-64
2024/04/04 09:50:14;;;;;;;1.35;0.38;;;9.20;99.80;;;;;;5020128;28;20063;-65
2024/04/04 09:52:40;;;;;;;1.15;0.68;;;;;;;;;;5016577;28;20033;-65
2024/04/04 09:55:11;;;;;;;0.65;0.50;;;9.20;99.90;;;;;;5017978;28;20095;-65
2024/04/04 09:57:38;;;;;;;;;;;9.30;99.90;;;;;;5010949;28;20048;-65
2024/04/04 10:00:14;;;;;;;4.75;0.47;;;9.30;99.90;;;;;;5017704;28;19909;-64
2024/04/04 10:02:49;;;;;;;0.45;0.45;;;9.30;99.90;;;;;;5016974;28;20171;-64
2024/04/04 10:05:19;;;;;;;0.20;0.20;;;9.40;99.90;;;;;;5021391;28;20030;-65
2024/04/04 10:07:48;;;;;;;1.35;0.75;;;9.40;99.90;;;;;;5011513;28;20116;-64
2024/04/04 10:10:27;;;;;;;0.77;0.50;;;9.50;99.90;;;;;;5015747;28;20044;-65
2024/04/04 10:12:53;;;;;;;0.40;0.40;;;9.50;99.90;;;;;;5020889;28;20083;-65
2024/04/04 10:15:20;;;;;;;0.70;0.60;;;9.50;99.90;;;;;;5030472;28;20414;-64
2024/04/04 10:17:49;;;;;;;2.55;0.52;;;9.50;99.90;;;;;;5016276;28;20432;-64
2024/04/04 10:20:21;;;;;;;1.63;0.68;;;9.50;99.90;;;;;;5023619;28;20124;-64
2024/04/04 10:23:05;;;;;;;1.63;0.60;;;9.60;99.90;;;;;;5018920;28;20032;-65
2024/04/04 10:25:31;;;;;;;0.30;0.30;;;9.60;99.90;;;;;;5013101;28;20037;-66
2024/04/04 10:28:07;;;;;;;0.60;0.60;;;9.60;99.90;;;;;;5016585;28;20060;-64
2024/04/04 10:30:39;;;;;;;1.15;0.50;;;;;;;;;;5015793;28;20104;-64
2024/04/04 10:33:09;;;;;;;0.88;0.73;;;9.60;99.90;;;;;;5012522;28;20120;-65
2024/04/04 10:35:35;;;;;;;1.23;0.70;;;9.70;99.90;;;;;;5013899;28;20030;-66
2024/04/04 10:38:10;;;;;;;1.88;0.57;;;9.70;99.90;;;;;;5015949;28;20041;-65
2024/04/04 10:40:36;;;;;;;0.50;0.50;;;9.70;99.90;;;;;;5023238;28;20033;-65
2024/04/04 10:43:10;;;;;;;0.80;0.75;;;9.80;99.90;;;;;;5017800;28;20404;-65
2024/04/04 10:45:38;;;;;;;1.77;0.57;;;9.80;99.90;;;;;;5020484;28;20049;-66
2024/04/04 10:48:05;;;;;;;0.45;0.40;;;9.80;99.90;;;;;;5014147;28;20041;-65
2024/04/04 10:50:32;;;;;;;1.08;0.55;;;9.90;99.90;;;;;;5019667;28;20121;-66
2024/04/04 10:52:58;;;;;;;1.38;0.52;;;10.00;99.90;;;;;;5025239;28;20060;-65
2024/04/04 10:55:28;;;;;;;1.73;0.75;;;10.10;99.90;;;;;;5014477;28;20100;-65
2024/04/04 10:57:53;;;;;;;0.70;0.50;;;10.20;99.90;;;;;;5022324;28;20101;-66
2024/04/04 11:00:20;;;;;;;1.25;0.70;;;10.30;99.90;;;;;;5018426;28;20206;-65
2024/04/04 11:02:51;;;;;;;0.50;0.50;;;;;;;;;;5036049;28;20053;-65
2024/04/04 11:05:17;;;;;;;0.40;0.40;;;10.30;99.90;;;;;;5021215;28;20034;-65
2024/04/04 11:07:45;;;;;;;0.50;0.50;;;10.20;99.90;;;;;;5017772;28;20104;-65
2024/04/04 11:10:11;;;;;;;0.55;0.55;;;10.30;99.90;;;;;;5012187;28;20056;-66
2024/04/04 11:12:37;;;;;;;0.45;0.45;;;10.40;99.90;;;;;;5017566;28;20090;-65
2024/04/04 11:15:05;;;;;;;1.35;0.50;;;10.40;99.90;;;;;;5020576;28;20026;-65
2024/04/04 11:17:31;;;;;;;1.42;0.60;;;10.40;99.90;;;;;;5018453;28;20050;-65
2024/04/04 11:20:14;;;;;;;1.40;0.35;;;10.40;99.90;;;;;;5015436;28;20579;-66
2024/04/04 11:22:40;;;;;;;0.60;0.60;;;10.40;99.90;;;;;;5016691;28;20049;-66
2024/04/04 11:25:07;;;;;;;0.70;0.60;;;10.40;99.90;;;;;;5013208;28;20171;-65
2024/04/04 11:27:39;;;;;;;3.17;0.90;;;10.40;99.90;;;;;;5016214;28;20120;-66
2024/04/04 11:30:09;;;;;;;3.33;0.80;;;10.50;99.90;;;;;;5020944;28;20049;-66
2024/04/04 11:32:35;;;;;;;1.90;0.88;;;10.50;99.90;;;;;;5016392;28;20037;-66
2024/04/04 11:35:04;;;;;;;0.98;0.70;;;10.50;99.90;;;;;;5018610;28;20724;-67
2024/04/04 11:37:30;;;;;;;0.95;0.60;;;10.50;99.90;;;;;;5017929;28;20113;-67
2024/04/04 11:39:55;;;;;;;1.35;0.82;;;10.50;99.90;;;;;;5017850;28;20021;-66
2024/04/04 11:42:21;;;;;;;1.08;0.70;;;10.50;99.90;;;;;;5012404;28;20061;-68
2024/04/04 11:44:47;;;;;;;1.10;0.75;;;10.50;99.90;;;;;;5012804;28;20454;-66
2024/04/04 11:47:13;;;;;;;1.30;0.93;;;10.50;99.90;;;;;;5013720;28;20032;-67
2024/04/04 11:49:39;;;;;;;0.88;0.80;;;10.60;99.90;;;;;;5023129;28;20037;-67
2024/04/04 11:52:05;;;;;;;1.67;0.73;;;10.60;99.90;;;;;;5012761;28;20061;-67
2024/04/04 11:54:31;;;;;;;0.63;0.63;;;10.70;99.90;;;;;;5024711;28;20033;-66
2024/04/04 11:56:56;;;;;;;1.33;0.80;;;10.80;99.90;;;;;;5026356;28;20033;-67
2024/04/04 11:59:24;;;;;;;1.02;0.65;;;10.90;99.90;;;;;;5017827;28;20112;-66
2024/04/04 12:01:50;;;;;;;2.15;0.80;;;10.90;99.90;;;;;;5012611;28;20340;-67
2024/04/04 12:04:15;;;;;;;0.80;0.63;;;10.90;99.90;;;;;;5023501;28;20070;-67
2024/04/04 12:06:41;;;;;;;1.50;0.50;;;10.90;99.90;;;;;;5008435;28;20037;-67
2024/04/04 12:09:09;;;;;;;0.55;0.52;;;11.00;99.90;;;;;;5015375;28;20053;-66
2024/04/04 12:11:38;;;;;;;0.88;0.57;;;11.00;99.90;;;;;;5024794;28;20051;-67
2024/04/04 12:14:07;;;;;;;0.75;0.50;;;11.00;99.90;;;;;;5018045;28;20013;-67
2024/04/04 12:16:33;;;;;;;1.63;0.68;;;11.10;99.90;;;;;;5012801;28;20037;-67
2024/04/04 12:21:43;;;;;;;0.77;0.60;;;11.20;99.90;;;;;;5007996;28;20171;-67
2024/04/04 12:24:09;;;;;;;0.43;0.43;;;11.20;99.90;;;;;;5021635;28;20212;-67
2024/04/04 12:26:35;;;;;;;1.63;0.93;;;11.30;99.90;;;;;;5014443;28;20033;-67
2024/04/04 12:29:00;;;;;;;1.35;0.80;;;11.30;99.90;;;;;;5012407;28;20041;-66
2024/04/04 12:31:26;;;;;;;0.65;0.57;;;11.20;99.90;;;;;;5010583;28;20124;-67
2024/04/04 12:33:51;;;;;;;1.52;0.80;;;11.10;99.90;;;;;;5017445;28;20026;-67
2024/04/04 12:36:16;;;;;;;0.73;0.73;;;11.10;99.90;;;;;;5011087;28;20415;-67
2024/04/04 12:38:42;;;;;;;1.23;0.80;;;11.10;99.90;;;;;;5021158;28;20109;-68
2024/04/04 12:41:07;;;;;;;1.77;0.60;;;11.10;99.90;;;;;;5018719;28;20414;-67
2024/04/04 12:43:33;;;;;;;1.85;1.02;;;11.10;99.90;;;;;;5019280;28;20037;-67
2024/04/04 12:46:03;;;;;;;0.70;0.70;;;11.10;99.90;;;;;;5012011;28;20500;-67
2024/04/04 12:48:32;;;;;;;1.15;0.80;;;11.10;99.90;;;;;;5018806;28;20042;-67
2024/04/04 12:50:59;;;;;;;1.85;0.90;;;11.10;99.90;;;;;;5010504;28;20042;-67
2024/04/04 12:53:25;;;;;;;2.42;1.00;;;11.10;99.90;;;;;;5014356;28;20105;-67
2024/04/04 12:55:51;;;;;;;1.58;0.90;;;11.10;99.90;;;;;;5018431;28;20083;-67
2024/04/04 12:58:17;;;;;;;0.85;0.75;;;11.10;99.90;;;;;;5012668;28;20049;-66